createdAt,value
2022-10-01T04:00:30.660Z,12.41
2022-10-01T04:05:30.588Z,12.64
2022-10-01T04:10:30.537Z,12.56
2022-10-01T04:15:38.542Z,12.65
2022-10-01T04:20:30.425Z,12.64
2022-10-01T04:25:30.376Z,12.64
2022-10-01T04:30:30.345Z,12.66
2022-10-01T04:35:30.285Z,12.78
2022-10-01T04:40:30.240Z,12.77
2022-10-01T04:45:30.159Z,13.10
2022-10-01T04:50:30.123Z,12.89
2022-10-01T04:55:30.070Z,12.97
2022-10-01T05:00:30.077Z,12.97
2022-10-01T05:05:29.961Z,13.15
2022-10-01T05:10:29.892Z,13.35
2022-10-01T05:15:29.852Z,13.29
2022-10-01T05:20:29.791Z,13.41
2022-10-01T05:25:29.741Z,13.34
2022-10-01T05:30:29.763Z,13.49
2022-10-01T05:35:29.693Z,13.26
2022-10-01T05:40:29.571Z,13.25
2022-10-01T05:45:29.543Z,13.24
2022-10-01T05:50:29.463Z,13.20
2022-10-01T05:55:29.430Z,13.23
2022-10-01T06:00:29.574Z,13.30
2022-10-01T06:05:29.306Z,13.29
2022-10-01T06:10:29.249Z,13.24
2022-10-01T06:15:29.268Z,13.34
2022-10-01T06:20:29.139Z,13.33
2022-10-01T06:25:29.089Z,13.30
2022-10-01T06:30:29.037Z,13.36
2022-10-01T06:35:29.009Z,13.52
2022-10-01T06:40:28.941Z,13.61
2022-10-01T06:45:28.949Z,13.73
2022-10-01T06:50:28.820Z,13.74
2022-10-01T06:55:28.784Z,13.86
2022-10-01T07:00:28.744Z,13.51
2022-10-01T07:05:28.706Z,13.44
2022-10-01T07:10:28.605Z,13.57
2022-10-01T07:15:28.589Z,13.54
2022-10-01T07:20:28.495Z,13.45
2022-10-01T07:25:28.457Z,13.71
2022-10-01T07:30:28.410Z,13.88
2022-10-01T07:35:28.360Z,13.91
2022-10-01T07:40:28.283Z,14.19
2022-10-01T07:45:28.324Z,13.83
2022-10-01T07:50:28.175Z,13.90
2022-10-01T07:55:28.150Z,13.98
2022-10-01T08:00:28.116Z,13.91
2022-10-01T08:05:28.059Z,13.91
2022-10-01T08:10:27.963Z,14.21
2022-10-01T08:15:27.929Z,14.15
2022-10-01T08:20:27.864Z,14.09
2022-10-01T08:25:27.792Z,14.46
2022-10-01T08:30:27.749Z,14.23
2022-10-01T08:35:27.722Z,14.41
2022-10-01T08:40:27.648Z,14.59
2022-10-01T08:45:27.692Z,15.32
2022-10-01T08:50:27.539Z,15.59
2022-10-01T08:55:27.513Z,15.56
2022-10-01T09:00:27.432Z,15.23
2022-10-01T09:05:27.408Z,15.64
2022-10-01T09:10:27.326Z,15.36
2022-10-01T09:15:27.283Z,15.65
2022-10-01T09:20:27.205Z,15.82
2022-10-01T09:25:27.150Z,15.70
2022-10-01T09:30:27.108Z,15.83
2022-10-01T09:35:27.059Z,15.56
2022-10-01T09:40:26.987Z,15.56
2022-10-01T09:45:27.029Z,15.62
2022-10-01T09:50:26.879Z,15.53
2022-10-01T09:55:26.840Z,15.84
2022-10-01T10:00:26.777Z,16.06
2022-10-01T10:05:26.771Z,16.50
2022-10-01T10:10:26.654Z,16.76
2022-10-01T10:15:26.633Z,17.07
2022-10-01T10:20:33.582Z,17.13
2022-10-01T10:25:26.503Z,17.50
2022-10-01T10:30:26.461Z,17.47
2022-10-01T10:35:26.416Z,17.59
2022-10-01T10:40:29.511Z,17.94
2022-10-01T10:45:26.289Z,18.03
2022-10-01T10:50:26.246Z,18.52
2022-10-01T10:55:26.176Z,18.55
2022-10-01T11:00:26.118Z,18.82
2022-10-01T11:05:26.069Z,19.07
2022-10-01T11:10:25.996Z,18.80
2022-10-01T11:15:25.972Z,19.14
2022-10-01T11:20:25.895Z,19.49
2022-10-01T11:25:25.839Z,18.45
2022-10-01T11:30:25.788Z,18.12
2022-10-01T11:35:25.754Z,17.72
2022-10-01T11:40:25.676Z,18.18
2022-10-01T11:45:25.628Z,19.59
2022-10-01T11:50:25.566Z,19.27
2022-10-01T11:55:25.538Z,19.33
2022-10-01T12:00:27.495Z,19.60
2022-10-01T12:05:25.492Z,19.96
2022-10-01T12:10:25.353Z,18.95
2022-10-01T12:15:25.328Z,18.72
2022-10-01T12:20:25.243Z,19.09
2022-10-01T12:25:25.201Z,19.36
2022-10-01T12:30:25.148Z,19.89
2022-10-01T12:35:25.103Z,19.87
2022-10-01T12:40:25.032Z,20.67
2022-10-01T12:45:24.989Z,21.19
2022-10-01T12:50:24.923Z,20.79
2022-10-01T12:55:24.889Z,21.60
2022-10-01T13:00:24.809Z,21.77
2022-10-01T13:05:24.758Z,21.91
2022-10-01T13:10:24.714Z,21.96
2022-10-01T13:15:24.666Z,21.86
2022-10-01T13:20:24.593Z,21.34
2022-10-01T13:25:24.546Z,20.91
2022-10-01T13:30:24.491Z,21.38
2022-10-01T13:35:24.464Z,20.22
2022-10-01T13:40:24.381Z,19.57
2022-10-01T13:45:24.323Z,19.26
2022-10-01T13:50:24.399Z,20.01
2022-10-01T13:55:24.234Z,20.32
2022-10-01T14:00:24.173Z,20.17
2022-10-01T14:05:24.122Z,20.35
2022-10-01T14:10:24.061Z,20.13
2022-10-01T14:15:24.025Z,19.29
2022-10-01T14:20:23.948Z,16.70
2022-10-01T14:25:23.904Z,15.72
2022-10-01T14:30:23.854Z,15.83
2022-10-01T14:35:23.810Z,16.75
2022-10-01T14:40:23.727Z,16.92
2022-10-01T14:45:23.886Z,16.96
2022-10-01T14:50:23.624Z,17.04
2022-10-01T14:55:23.594Z,17.01
2022-10-01T15:00:23.516Z,16.95
2022-10-01T15:05:23.552Z,16.83
2022-10-01T15:10:23.401Z,16.48
2022-10-01T15:15:23.362Z,16.45
2022-10-01T15:20:23.316Z,16.39
2022-10-01T15:25:23.240Z,16.82
2022-10-01T15:30:23.190Z,16.83
2022-10-01T15:35:23.147Z,16.55
2022-10-01T15:40:23.079Z,17.02
2022-10-01T15:45:23.013Z,16.73
2022-10-01T15:50:22.971Z,16.83
2022-10-01T15:55:22.923Z,16.94
2022-10-01T16:00:22.856Z,17.17
2022-10-01T16:05:22.806Z,16.83
2022-10-01T16:10:22.746Z,16.65
2022-10-01T16:15:22.707Z,16.64
2022-10-01T16:20:29.884Z,16.63
2022-10-01T16:25:22.577Z,16.52
2022-10-01T16:30:22.522Z,16.28
2022-10-01T16:35:22.486Z,16.34
2022-10-01T16:40:22.418Z,16.24
2022-10-01T16:45:22.363Z,16.13
2022-10-01T16:50:22.307Z,16.09
2022-10-01T16:55:22.266Z,16.18
2022-10-01T17:00:22.208Z,15.80
2022-10-01T17:05:22.139Z,15.45
2022-10-01T17:10:22.161Z,15.68
2022-10-01T17:15:22.047Z,15.64
2022-10-01T17:20:21.977Z,15.82
2022-10-01T17:25:21.924Z,15.60
2022-10-01T17:30:21.865Z,15.40
2022-10-01T17:35:21.830Z,14.89
2022-10-01T17:40:21.763Z,14.85
2022-10-01T17:45:21.698Z,14.89
2022-10-01T17:50:21.649Z,15.00
2022-10-01T17:55:21.619Z,15.40
2022-10-01T18:00:21.543Z,15.41
2022-10-01T18:05:21.489Z,15.08
2022-10-01T18:10:21.435Z,14.96
2022-10-01T18:15:21.399Z,14.99
2022-10-01T18:20:21.330Z,15.27
2022-10-01T18:25:21.269Z,15.39
2022-10-01T18:30:21.228Z,15.20
2022-10-01T18:35:21.182Z,15.11
2022-10-01T18:40:21.117Z,15.15
2022-10-01T18:45:21.185Z,15.25
2022-10-01T18:50:21.014Z,15.12
2022-10-01T18:55:21.633Z,14.72
2022-10-01T19:00:20.898Z,14.39
2022-10-01T19:05:20.841Z,14.36
2022-10-01T19:10:20.791Z,14.55
2022-10-01T19:15:20.751Z,14.25
2022-10-01T19:20:20.690Z,14.32
2022-10-01T19:25:20.630Z,14.10
2022-10-01T19:30:20.575Z,14.27
2022-10-01T19:35:20.536Z,13.91
2022-10-01T19:40:20.472Z,13.99
2022-10-01T19:45:20.415Z,13.95
2022-10-01T19:50:20.362Z,13.88
2022-10-01T19:55:20.325Z,13.82
2022-10-01T20:00:20.252Z,13.60
2022-10-01T20:05:20.204Z,13.46
2022-10-01T20:10:20.145Z,13.61
2022-10-01T20:15:20.117Z,13.39
2022-10-01T20:20:20.036Z,13.30
2022-10-01T20:25:19.987Z,13.25
2022-10-01T20:30:19.932Z,13.13
2022-10-01T20:35:19.900Z,13.06
2022-10-01T20:40:19.824Z,12.97
2022-10-01T20:45:19.787Z,12.96
2022-10-01T20:50:19.719Z,12.85
2022-10-01T20:55:19.684Z,12.62
2022-10-01T21:00:19.621Z,12.92
2022-10-01T21:05:19.684Z,12.74
2022-10-01T21:10:19.509Z,12.87
2022-10-01T21:15:19.476Z,12.66
2022-10-01T21:20:19.404Z,12.82
2022-10-01T21:25:19.349Z,12.70
2022-10-01T21:30:19.308Z,12.80
2022-10-01T21:35:19.263Z,12.85
2022-10-01T21:40:19.192Z,12.67
2022-10-01T21:45:19.138Z,12.78
2022-10-01T21:50:19.082Z,12.87
2022-10-01T21:55:19.055Z,12.89
2022-10-01T22:00:18.990Z,13.04
2022-10-01T22:05:18.924Z,13.03
2022-10-01T22:10:18.876Z,12.90
2022-10-01T22:15:18.847Z,13.03
2022-10-01T22:20:18.764Z,13.04
2022-10-01T22:25:18.714Z,13.01
2022-10-01T22:30:18.659Z,13.16
2022-10-01T22:35:18.631Z,13.01
2022-10-01T22:40:18.549Z,12.51
2022-10-01T22:45:18.501Z,12.60
2022-10-01T22:50:18.442Z,12.77
2022-10-01T22:55:18.414Z,12.95
2022-10-01T23:00:18.341Z,13.24
2022-10-01T23:05:18.291Z,13.19
2022-10-01T23:10:18.234Z,13.39
2022-10-01T23:15:18.202Z,13.41
2022-10-01T23:20:18.124Z,13.31
2022-10-01T23:25:18.073Z,13.25
